createdAt,value
2018-03-19T00:00:49.764Z,91.86
2018-03-19T00:01:50.341Z,91.49
2018-03-19T00:02:50.919Z,90.72
2018-03-19T00:03:51.496Z,90.53
2018-03-19T00:04:52.081Z,90.91
2018-03-19T00:05:52.654Z,90.14
2018-03-19T00:06:53.233Z,90.62
2018-03-19T00:07:53.811Z,91.10
2018-03-19T00:08:54.386Z,88.80
2018-03-19T00:09:54.964Z,88.61
2018-03-19T00:10:55.542Z,90.05
2018-03-19T00:11:56.117Z,90.05
2018-03-19T00:12:56.695Z,90.43
2018-03-19T00:13:57.323Z,88.90
2018-03-19T00:14:57.899Z,87.46
2018-03-19T00:15:58.477Z,91.00
2018-03-19T00:16:59.055Z,89.95
2018-03-19T00:17:59.629Z,90.72
2018-03-19T00:19:00.207Z,90.05
2018-03-19T00:20:00.783Z,90.43
2018-03-19T00:21:01.409Z,86.60
2018-03-19T00:22:01.985Z,86.31
2018-03-19T00:23:02.613Z,86.60
2018-03-19T00:24:03.188Z,89.09
2018-03-19T00:25:03.764Z,87.65
2018-03-19T00:26:04.340Z,90.72
2018-03-19T00:27:04.917Z,92.54
2018-03-19T00:28:05.495Z,89.57
2018-03-19T00:29:06.071Z,88.51
2018-03-19T00:30:06.648Z,90.53
2018-03-19T00:31:07.274Z,90.81
2018-03-19T00:32:07.852Z,86.60
2018-03-19T00:33:08.430Z,91.00
2018-03-19T00:34:09.007Z,90.77
2018-03-19T00:35:09.585Z,88.90
2018-03-19T00:36:10.262Z,89.66
2018-03-19T00:37:10.839Z,89.09
2018-03-19T00:38:11.415Z,91.77
2018-03-19T00:39:12.035Z,89.47
2018-03-19T00:40:12.611Z,88.61
2018-03-19T00:41:13.291Z,88.13
2018-03-19T00:42:13.865Z,89.95
2018-03-19T00:43:14.442Z,91.19
2018-03-19T00:44:15.021Z,90.23
2018-03-19T00:45:15.598Z,88.13
2018-03-19T00:46:16.177Z,89.76
2018-03-19T00:47:16.812Z,89.57
2018-03-19T00:48:17.382Z,87.61
2018-03-19T00:49:17.958Z,89.52
2018-03-19T00:50:18.533Z,85.31
2018-03-19T00:51:19.262Z,87.99
2018-03-19T00:52:19.837Z,91.10
2018-03-19T00:53:20.416Z,89.47
2018-03-19T00:54:20.993Z,89.33
2018-03-19T00:55:21.572Z,90.58
2018-03-19T00:56:22.149Z,91.10
2018-03-19T00:57:22.726Z,92.11
2018-03-19T00:58:23.302Z,90.67
2018-03-19T00:59:23.879Z,89.04
2018-03-19T01:00:24.456Z,90.67
2018-03-19T01:01:25.032Z,87.13
2018-03-19T01:02:25.609Z,86.94
2018-03-19T01:03:26.237Z,91.15
2018-03-19T01:04:26.814Z,89.43
2018-03-19T01:05:27.392Z,90.77
2018-03-19T01:06:28.063Z,89.52
2018-03-19T01:07:28.639Z,89.62
2018-03-19T01:08:29.217Z,88.47
2018-03-19T01:09:29.796Z,89.43
2018-03-19T01:10:30.424Z,88.85
2018-03-19T01:11:31.001Z,87.80
2018-03-19T01:12:31.578Z,90.48
2018-03-19T01:13:32.161Z,89.43
2018-03-19T01:14:32.735Z,86.84
2018-03-19T01:15:33.312Z,90.09
2018-03-19T01:16:33.890Z,91.53
2018-03-19T01:17:34.467Z,89.81
2018-03-19T01:18:35.046Z,90.19
2018-03-19T01:19:35.672Z,90.48
2018-03-19T01:20:36.251Z,90.29
2018-03-19T01:21:36.830Z,90.00
2018-03-19T01:22:37.405Z,88.76
2018-03-19T01:23:37.985Z,90.96
2018-03-19T01:24:38.652Z,88.95
2018-03-19T01:25:39.230Z,91.25
2018-03-19T01:26:39.809Z,88.76
2018-03-19T01:27:40.435Z,91.34
2018-03-19T01:28:41.011Z,89.43
2018-03-19T01:29:41.586Z,89.52
2018-03-19T01:30:42.162Z,91.25
2018-03-19T01:31:42.738Z,89.33
2018-03-19T01:32:43.312Z,87.80
2018-03-19T01:33:43.889Z,87.90
2018-03-19T01:34:44.466Z,87.41
2018-03-19T01:35:45.043Z,90.58
2018-03-19T01:36:45.672Z,89.81
2018-03-19T01:37:46.250Z,89.14
2018-03-19T01:38:46.877Z,88.18
2018-03-19T01:39:47.456Z,87.13
2018-03-19T01:40:48.035Z,90.48
2018-03-19T01:41:48.662Z,92.87
2018-03-19T01:42:49.292Z,91.05
2018-03-19T01:43:49.870Z,90.00
2018-03-19T01:44:50.446Z,89.81
2018-03-19T01:45:51.024Z,92.40
2018-03-19T01:46:51.601Z,90.86
2018-03-19T01:47:52.182Z,91.34
2018-03-19T01:48:52.758Z,90.00
2018-03-19T01:49:53.333Z,88.76
2018-03-19T01:50:53.913Z,90.96
2018-03-19T01:51:54.495Z,90.67
2018-03-19T01:52:55.110Z,87.90
2018-03-19T01:53:55.686Z,88.85
2018-03-19T01:54:56.263Z,88.76
2018-03-19T01:55:56.888Z,89.81
2018-03-19T01:56:57.464Z,88.76
2018-03-19T01:57:58.047Z,90.48
2018-03-19T01:58:58.617Z,92.30
2018-03-19T01:59:59.245Z,90.77
2018-03-19T02:01:00.022Z,88.95
2018-03-19T02:02:00.640Z,88.66
2018-03-19T02:03:01.218Z,89.14
2018-03-19T02:04:01.797Z,90.67
2018-03-19T02:05:02.413Z,91.34
2018-03-19T02:06:03.034Z,89.90
2018-03-19T02:07:03.611Z,91.05
2018-03-19T02:08:04.184Z,91.63
2018-03-19T02:09:04.761Z,91.72
2018-03-19T02:10:05.339Z,91.92
2018-03-19T02:11:05.915Z,91.72
2018-03-19T02:12:06.493Z,91.44
2018-03-19T02:13:07.073Z,91.05
2018-03-19T02:14:07.650Z,92.49
2018-03-19T02:15:08.280Z,92.49
2018-03-19T02:16:08.864Z,91.34
2018-03-19T02:17:09.487Z,92.87
2018-03-19T02:18:10.064Z,92.83
2018-03-19T02:19:10.689Z,93.21
2018-03-19T02:20:11.265Z,93.54
2018-03-19T02:21:11.843Z,93.98
2018-03-19T02:22:12.421Z,94.26
2018-03-19T02:23:12.998Z,94.31
2018-03-19T02:24:13.624Z,93.98
2018-03-19T02:25:14.198Z,94.07
2018-03-19T02:26:14.774Z,94.17
2018-03-19T02:27:15.351Z,94.84
2018-03-19T02:28:15.928Z,93.69
2018-03-19T02:29:16.504Z,93.79
2018-03-19T02:30:17.086Z,93.69
2018-03-19T02:31:17.753Z,93.50
2018-03-19T02:32:18.378Z,93.59
2018-03-19T02:33:18.958Z,94.45
2018-03-19T02:34:19.534Z,93.79
2018-03-19T02:35:20.110Z,94.17
2018-03-19T02:36:20.693Z,94.65
2018-03-19T02:37:21.264Z,94.74
2018-03-19T02:38:21.888Z,94.84
2018-03-19T02:39:22.467Z,94.74
2018-03-19T02:40:23.041Z,95.03
2018-03-19T02:41:23.618Z,94.65
2018-03-19T02:42:24.200Z,95.22
2018-03-19T02:43:24.813Z,94.93
2018-03-19T02:44:25.392Z,94.74
2018-03-19T02:45:25.970Z,95.22
2018-03-19T02:46:26.547Z,94.84
2018-03-19T02:47:27.175Z,95.31
2018-03-19T02:48:27.796Z,94.84
2018-03-19T02:49:28.372Z,95.98
2018-03-19T02:50:28.948Z,95.98
2018-03-19T02:51:29.575Z,95.03
2018-03-19T02:52:30.153Z,95.51
2018-03-19T02:53:30.738Z,95.98
2018-03-19T02:54:31.311Z,95.51
2018-03-19T02:55:31.886Z,95.70
2018-03-19T02:56:32.467Z,95.22
2018-03-19T02:57:33.133Z,95.79
2018-03-19T02:58:33.751Z,95.98
2018-03-19T02:59:34.330Z,96.27
2018-03-19T03:00:34.911Z,96.18
2018-03-19T03:01:35.484Z,96.08
2018-03-19T03:02:36.059Z,96.08
2018-03-19T03:03:36.637Z,96.27
2018-03-19T03:04:37.217Z,95.89
2018-03-19T03:05:37.788Z,96.47
2018-03-19T03:06:38.363Z,96.08
2018-03-19T03:07:38.939Z,96.37
2018-03-19T03:08:39.556Z,96.66
2018-03-19T03:09:40.224Z,96.27
2018-03-19T03:10:40.802Z,96.56
2018-03-19T03:11:41.383Z,96.27
2018-03-19T03:12:42.004Z,96.47
2018-03-19T03:13:42.583Z,96.18
2018-03-19T03:14:43.309Z,96.37
2018-03-19T03:15:43.888Z,96.75
2018-03-19T03:16:44.467Z,96.47
2018-03-19T03:17:45.045Z,96.75
2018-03-19T03:18:45.621Z,96.37
2018-03-19T03:19:46.196Z,95.89
2018-03-19T03:20:46.773Z,96.27
2018-03-19T03:21:47.349Z,96.08
2018-03-19T03:22:47.927Z,95.94
2018-03-19T03:23:48.506Z,95.84
2018-03-19T03:24:49.084Z,95.61
2018-03-19T03:25:49.661Z,95.89
2018-03-19T03:26:50.239Z,95.79
2018-03-19T03:27:50.866Z,95.56
2018-03-19T03:28:51.643Z,95.12
2018-03-19T03:29:52.219Z,95.41
2018-03-19T03:30:52.797Z,95.79
2018-03-19T03:31:53.370Z,95.51
2018-03-19T03:32:53.947Z,96.84
2018-03-19T03:33:54.522Z,96.08
2018-03-19T03:34:55.100Z,96.27
2018-03-19T03:35:55.827Z,96.75
2018-03-19T03:36:56.405Z,96.75
2018-03-19T03:37:56.982Z,97.52
2018-03-19T03:38:57.557Z,97.71
2018-03-19T03:39:58.136Z,97.71
2018-03-19T03:40:58.713Z,97.47
2018-03-19T03:41:59.292Z,97.47
2018-03-19T03:42:59.906Z,97.56
2018-03-19T03:44:00.481Z,97.85
2018-03-19T03:45:01.057Z,97.95
2018-03-19T03:46:01.683Z,98.04
2018-03-19T03:47:02.334Z,97.75
2018-03-19T03:48:02.888Z,98.71
2018-03-19T03:49:03.463Z,98.43
2018-03-19T03:50:04.038Z,98.71
2018-03-19T03:51:04.616Z,97.95
2018-03-19T03:52:05.195Z,97.85
2018-03-19T03:53:05.771Z,98.43
2018-03-19T03:54:06.348Z,99.10
2018-03-19T03:55:06.925Z,99.00
2018-03-19T03:56:07.552Z,99.57
2018-03-19T03:57:08.129Z,99.67
2018-03-19T03:58:08.704Z,99.67
2018-03-19T03:59:09.282Z,99.48
2018-03-19T04:00:09.857Z,99.19
2018-03-19T04:01:10.436Z,99.48
2018-03-19T04:02:11.010Z,99.19
2018-03-19T04:03:11.588Z,99.57
2018-03-19T04:04:12.163Z,99.67
2018-03-19T04:05:12.794Z,99.29
2018-03-19T04:06:13.367Z,99.10
2018-03-19T04:07:13.943Z,98.90
2018-03-19T04:08:14.520Z,99.19
2018-03-19T04:09:15.147Z,99.38
2018-03-19T04:10:15.774Z,99.48
2018-03-19T04:11:16.352Z,99.67
2018-03-19T04:12:16.930Z,99.99
2018-03-19T04:13:17.507Z,99.99
2018-03-19T04:14:18.134Z,99.67
2018-03-19T04:15:18.711Z,99.99
2018-03-19T04:16:19.290Z,99.38
2018-03-19T04:17:19.867Z,99.38
2018-03-19T04:18:20.444Z,99.48
2018-03-19T04:19:21.021Z,99.10
2018-03-19T04:20:21.677Z,99.86
2018-03-19T04:21:22.223Z,99.67
2018-03-19T04:22:22.798Z,99.76
2018-03-19T04:23:23.376Z,99.67
2018-03-19T04:24:24.102Z,99.76
2018-03-19T04:25:24.677Z,99.48
2018-03-19T04:26:25.253Z,99.67
2018-03-19T04:27:25.829Z,99.38
2018-03-19T04:28:26.403Z,99.48
2018-03-19T04:29:26.978Z,99.19
2018-03-19T04:30:27.555Z,99.38
2018-03-19T04:31:28.127Z,99.38
2018-03-19T04:32:28.703Z,99.38
2018-03-19T04:33:29.278Z,99.29
2018-03-19T04:34:29.854Z,99.57
2018-03-19T04:35:30.481Z,99.29
2018-03-19T04:36:31.056Z,99.62
2018-03-19T04:37:31.683Z,98.90
2018-03-19T04:38:32.259Z,99.05
2018-03-19T04:39:32.837Z,99.43
2018-03-19T04:40:33.415Z,98.61
2018-03-19T04:41:34.034Z,99.24
2018-03-19T04:42:34.613Z,99.29
2018-03-19T04:43:35.191Z,99.19
2018-03-19T04:44:35.765Z,99.10
2018-03-19T04:45:36.340Z,99.00
2018-03-19T04:46:36.967Z,99.38
2018-03-19T04:47:37.548Z,98.90
2018-03-19T04:48:38.122Z,99.86
2018-03-19T04:49:38.702Z,99.57
2018-03-19T04:50:39.423Z,99.99
2018-03-19T04:51:45.051Z,99.99
2018-03-19T04:52:45.627Z,99.99
2018-03-19T04:53:46.203Z,99.86
2018-03-19T04:54:46.928Z,99.99
2018-03-19T04:55:47.504Z,99.99
2018-03-19T04:56:48.084Z,99.99
2018-03-19T04:57:48.745Z,99.99
2018-03-19T04:58:49.272Z,99.99
2018-03-19T04:59:49.852Z,99.99
2018-03-19T05:00:50.429Z,99.99
2018-03-19T05:01:51.008Z,99.99
2018-03-19T05:02:51.584Z,99.99
2018-03-19T05:03:52.160Z,99.99
2018-03-19T05:04:52.736Z,99.99
2018-03-19T05:05:53.310Z,99.99
2018-03-19T05:06:53.942Z,99.99
2018-03-19T05:07:54.559Z,99.99
2018-03-19T05:08:55.180Z,99.99
2018-03-19T05:09:55.835Z,99.99
2018-03-19T05:10:56.378Z,99.99
2018-03-19T05:11:57.004Z,99.99
2018-03-19T05:12:57.579Z,99.99
2018-03-19T05:13:58.208Z,99.99
2018-03-19T05:14:58.780Z,99.99
2018-03-19T05:15:59.405Z,99.99
2018-03-19T05:16:59.982Z,99.99
2018-03-19T05:18:00.560Z,99.99
2018-03-19T05:19:01.168Z,99.99
2018-03-19T05:20:01.719Z,99.99
2018-03-19T05:21:02.299Z,99.99
2018-03-19T05:22:02.866Z,99.99
2018-03-19T05:23:03.445Z,99.99
2018-03-19T05:24:04.018Z,99.99
2018-03-19T05:25:04.644Z,99.99
2018-03-19T05:26:05.221Z,99.99
2018-03-19T05:27:05.797Z,99.99
2018-03-19T05:28:06.373Z,99.99
2018-03-19T05:29:06.997Z,99.99
2018-03-19T05:30:07.574Z,99.99
2018-03-19T05:31:08.151Z,99.99
2018-03-19T05:32:08.777Z,99.99
2018-03-19T05:33:09.385Z,99.99
2018-03-19T05:34:09.929Z,99.99
2018-03-19T05:35:10.504Z,99.99
2018-03-19T05:36:11.083Z,99.99
2018-03-19T05:37:11.700Z,99.99
2018-03-19T05:38:12.277Z,99.99
2018-03-19T05:39:12.855Z,99.99
2018-03-19T05:40:13.483Z,99.99
2018-03-19T05:41:14.060Z,99.99
2018-03-19T05:42:14.691Z,99.99
2018-03-19T05:43:15.266Z,99.99
2018-03-19T05:44:15.840Z,99.99
2018-03-19T05:45:16.466Z,99.99
2018-03-19T05:46:17.046Z,99.99
2018-03-19T05:47:17.629Z,99.99
2018-03-19T05:48:18.244Z,99.99
2018-03-19T05:49:18.820Z,99.99
2018-03-19T05:50:19.545Z,99.99
2018-03-19T05:51:20.120Z,99.99
2018-03-19T05:52:20.696Z,99.99
2018-03-19T05:53:21.271Z,99.99
2018-03-19T05:54:21.846Z,99.99
2018-03-19T05:55:22.428Z,99.99
2018-03-19T05:56:23.043Z,99.99
2018-03-19T05:57:23.619Z,99.99
2018-03-19T05:58:24.196Z,99.99
2018-03-19T05:59:24.773Z,99.99
2018-03-19T06:00:25.400Z,99.99
2018-03-19T06:01:25.976Z,99.99
2018-03-19T06:02:27.004Z,99.99
2018-03-19T06:03:32.632Z,99.99
2018-03-19T06:04:33.250Z,99.99
2018-03-19T06:05:33.827Z,99.99
2018-03-19T06:06:34.402Z,99.99
2018-03-19T06:07:34.978Z,99.99
2018-03-19T06:08:35.552Z,99.99
2018-03-19T06:09:36.181Z,99.99
2018-03-19T06:10:36.757Z,99.99
2018-03-19T06:11:37.336Z,99.99
2018-03-19T06:12:37.915Z,99.99
2018-03-19T06:13:38.532Z,99.99
2018-03-19T06:14:39.110Z,99.99
2018-03-19T06:15:39.689Z,99.99
2018-03-19T06:16:40.260Z,99.99
2018-03-19T06:17:40.884Z,99.99
2018-03-19T06:18:41.467Z,99.99
2018-03-19T06:19:42.040Z,99.99
2018-03-19T06:20:42.615Z,99.99
2018-03-19T06:21:43.194Z,99.99
2018-03-19T06:22:43.771Z,99.99
2018-03-19T06:23:44.346Z,99.99
2018-03-19T06:24:44.922Z,99.99
2018-03-19T06:25:45.498Z,99.99
2018-03-19T06:26:46.127Z,99.99
2018-03-19T06:27:46.753Z,99.99
2018-03-19T06:28:47.331Z,99.99
2018-03-19T06:29:47.908Z,99.99
2018-03-19T06:30:48.534Z,99.99
2018-03-19T06:31:49.307Z,99.99
2018-03-19T06:32:49.884Z,99.99
2018-03-19T06:33:50.471Z,99.99
2018-03-19T06:34:51.074Z,99.99
2018-03-19T06:35:51.652Z,99.99
2018-03-19T06:36:52.227Z,99.99
2018-03-19T06:37:52.804Z,99.99
2018-03-19T06:38:53.381Z,99.99
2018-03-19T06:39:53.958Z,99.99
2018-03-19T06:40:54.591Z,99.99
2018-03-19T06:41:55.157Z,99.99
2018-03-19T06:42:55.734Z,99.99
2018-03-19T06:43:56.309Z,99.99
2018-03-19T06:44:56.887Z,99.99
2018-03-19T06:45:57.461Z,99.99
2018-03-19T06:46:58.037Z,99.99
2018-03-19T06:47:58.664Z,99.99
2018-03-19T06:48:59.240Z,99.99
2018-03-19T06:49:59.818Z,99.99
2018-03-19T06:51:00.447Z,99.99
2018-03-19T06:52:01.023Z,99.99
2018-03-19T06:53:01.599Z,99.99
2018-03-19T06:54:02.175Z,99.99
2018-03-19T06:55:02.761Z,99.99
2018-03-19T06:56:03.336Z,99.99
2018-03-19T06:57:03.912Z,99.99
2018-03-19T06:58:04.487Z,99.99
2018-03-19T06:59:05.064Z,99.99
2018-03-19T07:00:05.689Z,99.99
2018-03-19T07:01:06.265Z,99.99
2018-03-19T07:02:06.841Z,99.99
2018-03-19T07:03:07.471Z,99.99
2018-03-19T07:04:08.042Z,99.99
2018-03-19T07:05:08.616Z,99.99
2018-03-19T07:06:09.191Z,99.99
2018-03-19T07:07:09.766Z,99.99
2018-03-19T07:08:10.343Z,99.99
2018-03-19T07:09:10.922Z,99.99
2018-03-19T07:10:11.499Z,99.99
2018-03-19T07:11:12.134Z,99.99
2018-03-19T07:12:12.743Z,99.99
2018-03-19T07:13:13.318Z,99.99
2018-03-19T07:14:13.891Z,99.99
2018-03-19T07:15:14.516Z,99.99
2018-03-19T07:16:15.095Z,99.99
2018-03-19T07:17:15.726Z,99.99
2018-03-19T07:18:16.256Z,99.99
2018-03-19T07:19:16.825Z,99.99
2018-03-19T07:20:17.449Z,99.99
2018-03-19T07:21:18.027Z,99.99
2018-03-19T07:22:18.604Z,99.99
2018-03-19T07:23:19.184Z,99.99
2018-03-19T07:24:19.757Z,99.99
2018-03-19T07:25:20.484Z,99.99
2018-03-19T07:26:21.112Z,99.99
2018-03-19T07:27:21.774Z,99.99
2018-03-19T07:28:22.307Z,99.99
2018-03-19T07:29:22.884Z,99.99
2018-03-19T07:30:23.512Z,99.99
2018-03-19T07:31:24.090Z,99.99
2018-03-19T07:32:24.666Z,99.99
2018-03-19T07:33:25.242Z,99.99
2018-03-19T07:34:25.818Z,99.99
2018-03-19T07:35:26.393Z,99.99
2018-03-19T07:36:26.969Z,99.99
2018-03-19T07:37:27.608Z,99.99
2018-03-19T07:38:28.122Z,99.99
2018-03-19T07:39:28.739Z,99.99
2018-03-19T07:40:29.315Z,99.99
2018-03-19T07:41:29.891Z,99.99
2018-03-19T07:42:30.517Z,99.99
2018-03-19T07:43:31.143Z,99.99
2018-03-19T07:44:31.719Z,99.99
2018-03-19T07:45:32.295Z,99.99
2018-03-19T07:46:32.920Z,99.99
2018-03-19T07:47:33.498Z,99.99
2018-03-19T07:48:34.088Z,99.99
2018-03-19T07:49:34.652Z,99.99
2018-03-19T07:50:35.229Z,99.99
2018-03-19T07:51:35.806Z,99.99
2018-03-19T07:52:36.432Z,99.99
2018-03-19T07:53:37.011Z,99.99
2018-03-19T07:54:37.587Z,99.99
2018-03-19T07:55:38.164Z,99.99
2018-03-19T07:56:38.740Z,99.99
2018-03-19T07:57:39.320Z,99.99
2018-03-19T07:58:39.896Z,99.99
2018-03-19T07:59:40.520Z,99.99
2018-03-19T08:00:41.147Z,99.99
2018-03-19T08:01:41.723Z,99.99
2018-03-19T08:02:42.301Z,99.99
2018-03-19T08:03:42.876Z,99.99
2018-03-19T08:04:43.454Z,99.99
2018-03-19T08:05:44.047Z,99.99
2018-03-19T08:06:44.607Z,99.99
2018-03-19T08:07:45.185Z,99.99
2018-03-19T08:08:45.910Z,99.99
2018-03-19T08:09:46.486Z,99.99
2018-03-19T08:10:47.063Z,99.99
2018-03-19T08:11:47.639Z,99.99
2018-03-19T08:12:48.218Z,99.99
2018-03-19T08:13:48.797Z,99.99
2018-03-19T08:14:49.373Z,99.99
2018-03-19T08:15:49.950Z,99.99
2018-03-19T08:16:50.525Z,99.99
2018-03-19T08:17:51.100Z,99.99
2018-03-19T08:18:51.677Z,99.99
2018-03-19T08:19:52.303Z,99.99
2018-03-19T08:20:52.930Z,99.99
2018-03-19T08:21:53.505Z,99.99
2018-03-19T08:22:54.082Z,99.99
2018-03-19T08:23:54.657Z,99.99
2018-03-19T08:24:55.232Z,99.99
2018-03-19T08:25:55.867Z,99.99
2018-03-19T08:26:56.473Z,99.99
2018-03-19T08:27:57.050Z,99.99
2018-03-19T08:28:57.628Z,99.99
2018-03-19T08:29:58.204Z,99.99
2018-03-19T08:30:58.779Z,99.99
2018-03-19T08:31:59.410Z,99.99
2018-03-19T08:32:59.931Z,99.99
2018-03-19T08:34:00.509Z,99.99
2018-03-19T08:35:01.088Z,99.99
2018-03-19T08:36:01.714Z,99.99
2018-03-19T08:37:02.292Z,99.99
2018-03-19T08:38:02.911Z,99.99
2018-03-19T08:39:03.488Z,99.99
2018-03-19T08:40:04.065Z,99.99
2018-03-19T08:41:04.642Z,99.99
2018-03-19T08:42:05.220Z,99.99
2018-03-19T08:43:05.847Z,99.99
2018-03-19T08:44:06.426Z,99.99
2018-03-19T08:45:06.999Z,99.99
2018-03-19T08:46:07.577Z,99.99
2018-03-19T08:47:08.152Z,99.99
2018-03-19T08:48:08.728Z,99.99
2018-03-19T08:49:09.306Z,99.99
2018-03-19T08:50:09.884Z,99.99
2018-03-19T08:51:10.464Z,99.99
2018-03-19T08:52:11.092Z,99.99
2018-03-19T08:53:11.762Z,99.99
2018-03-19T08:54:12.338Z,99.99
2018-03-19T08:55:12.913Z,99.99
2018-03-19T08:56:13.488Z,99.99
2018-03-19T08:57:14.114Z,99.99
2018-03-19T08:58:14.690Z,99.99
2018-03-19T08:59:15.267Z,99.99
2018-03-19T09:00:15.851Z,99.99
2018-03-19T09:01:16.427Z,99.99
2018-03-19T09:02:17.054Z,99.99
2018-03-19T09:03:17.631Z,99.99
2018-03-19T09:04:18.218Z,99.99
2018-03-19T09:05:18.796Z,99.99
2018-03-19T09:06:19.359Z,99.99
2018-03-19T09:07:19.944Z,99.99
2018-03-19T09:08:20.512Z,99.99
2018-03-19T09:09:21.237Z,99.99
2018-03-19T09:10:21.812Z,99.99
2018-03-19T09:11:22.438Z,99.99
2018-03-19T09:12:23.016Z,99.99
2018-03-19T09:13:23.593Z,99.99
2018-03-19T09:14:24.170Z,99.99
2018-03-19T09:15:24.747Z,99.99
2018-03-19T09:16:25.323Z,99.99
2018-03-19T09:17:25.900Z,99.99
2018-03-19T09:18:26.474Z,99.99
2018-03-19T09:19:27.051Z,99.99
2018-03-19T09:20:27.680Z,99.99
2018-03-19T09:21:28.255Z,99.99
2018-03-19T09:22:28.882Z,99.99
2018-03-19T09:23:29.460Z,99.99
2018-03-19T09:24:30.042Z,99.99
2018-03-19T09:25:30.614Z,99.99
2018-03-19T09:26:31.244Z,99.99
2018-03-19T09:27:31.819Z,99.99
2018-03-19T09:28:32.444Z,99.99
2018-03-19T09:29:33.028Z,99.99
2018-03-19T09:30:33.604Z,99.99
2018-03-19T09:31:34.220Z,99.99
2018-03-19T09:32:34.796Z,99.99
2018-03-19T09:33:35.375Z,99.99
2018-03-19T09:34:35.949Z,99.99
2018-03-19T09:35:36.527Z,99.99
2018-03-19T09:36:37.145Z,99.99
2018-03-19T09:37:37.679Z,99.99
2018-03-19T09:38:38.255Z,99.99
2018-03-19T09:39:38.830Z,99.99
2018-03-19T09:40:39.408Z,99.99
2018-03-19T09:41:40.149Z,99.99
2018-03-19T09:42:40.895Z,99.99
2018-03-19T09:43:41.471Z,99.99
2018-03-19T09:44:42.049Z,99.99
2018-03-19T09:45:42.673Z,99.99
2018-03-19T09:46:43.250Z,99.99
2018-03-19T09:47:43.832Z,99.99
2018-03-19T09:48:44.403Z,99.99
2018-03-19T09:49:44.981Z,99.99
2018-03-19T09:50:45.599Z,99.99
2018-03-19T09:51:46.175Z,99.99
2018-03-19T09:52:46.750Z,99.99
2018-03-19T09:53:47.326Z,99.99
2018-03-19T09:54:47.908Z,99.99
2018-03-19T09:55:48.524Z,99.99
2018-03-19T09:56:49.104Z,99.99
2018-03-19T09:57:49.679Z,99.99
2018-03-19T09:58:50.256Z,99.99
2018-03-19T09:59:50.834Z,99.99
2018-03-19T10:00:51.609Z,99.99
2018-03-19T10:01:52.243Z,99.99
2018-03-19T10:02:52.816Z,99.99
2018-03-19T10:03:53.391Z,99.99
2018-03-19T10:04:53.969Z,99.99
2018-03-19T10:05:54.596Z,99.99
2018-03-19T10:06:55.175Z,99.99
2018-03-19T10:07:55.749Z,99.99
2018-03-19T10:08:56.323Z,99.99
2018-03-19T10:09:56.898Z,99.99
2018-03-19T10:10:57.475Z,99.99
2018-03-19T10:11:58.055Z,99.99
2018-03-19T10:12:58.625Z,99.99
2018-03-19T10:13:59.202Z,99.99
2018-03-19T10:14:59.782Z,99.99
2018-03-19T10:16:00.360Z,99.99
2018-03-19T10:17:00.939Z,99.99
2018-03-19T10:18:01.518Z,99.99
2018-03-19T10:19:02.143Z,99.99
2018-03-19T10:20:02.772Z,99.99
2018-03-19T10:21:03.347Z,99.99
2018-03-19T10:22:03.924Z,99.99
2018-03-19T10:23:04.498Z,99.99
2018-03-19T10:24:05.076Z,99.99
2018-03-19T10:25:05.654Z,99.99
2018-03-19T10:26:06.282Z,99.99
2018-03-19T10:27:06.858Z,99.99
2018-03-19T10:28:07.435Z,99.99
2018-03-19T10:29:08.012Z,99.99
2018-03-19T10:30:08.591Z,99.99
2018-03-19T10:31:09.218Z,99.99
2018-03-19T10:32:09.794Z,99.99
2018-03-19T10:33:10.372Z,99.99
2018-03-19T10:34:10.981Z,99.99
2018-03-19T10:35:11.527Z,99.99
2018-03-19T10:36:12.153Z,99.99
2018-03-19T10:37:12.730Z,99.99
2018-03-19T10:38:13.304Z,99.99
2018-03-19T10:39:13.880Z,99.99
2018-03-19T10:40:14.506Z,99.99
2018-03-19T10:41:15.133Z,99.99
2018-03-19T10:42:15.708Z,99.99
2018-03-19T10:43:16.283Z,99.99
2018-03-19T10:44:16.860Z,99.99
2018-03-19T10:45:17.437Z,99.99
2018-03-19T10:46:18.018Z,99.99
2018-03-19T10:47:18.594Z,99.99
2018-03-19T10:48:19.171Z,99.99
2018-03-19T10:49:19.800Z,99.99
2018-03-19T10:50:20.380Z,99.99
2018-03-19T10:51:21.008Z,99.99
2018-03-19T10:52:21.584Z,99.99
2018-03-19T10:53:22.174Z,99.99
2018-03-19T10:54:22.749Z,99.99
2018-03-19T10:55:23.321Z,99.99
2018-03-19T10:56:23.896Z,99.99
2018-03-19T10:57:24.475Z,99.99
2018-03-19T10:58:25.101Z,99.99
2018-03-19T10:59:25.681Z,99.99
2018-03-19T11:00:26.258Z,99.99
2018-03-19T11:01:26.891Z,99.99
2018-03-19T11:02:27.413Z,99.99
2018-03-19T11:03:28.033Z,99.99
2018-03-19T11:04:28.654Z,99.99
2018-03-19T11:05:29.230Z,99.99
2018-03-19T11:06:29.807Z,99.99
2018-03-19T11:07:30.384Z,99.99
2018-03-19T11:08:31.111Z,99.99
2018-03-19T11:09:31.737Z,99.99
2018-03-19T11:10:32.318Z,99.99
2018-03-19T11:11:32.897Z,99.99
2018-03-19T11:12:33.473Z,99.87
2018-03-19T11:13:34.047Z,99.91
2018-03-19T11:14:34.676Z,99.99
2018-03-19T11:15:35.254Z,97.52
2018-03-19T11:16:35.829Z,98.76
2018-03-19T11:17:36.408Z,98.76
2018-03-19T11:18:36.986Z,97.80
2018-03-19T11:19:37.613Z,97.80
2018-03-19T11:20:38.222Z,98.09
2018-03-19T11:21:38.773Z,98.47
2018-03-19T11:22:39.343Z,99.99
2018-03-19T11:23:40.069Z,97.90
2018-03-19T11:24:40.645Z,96.66
2018-03-19T11:25:41.222Z,99.43
2018-03-19T11:26:41.799Z,98.38
2018-03-19T11:27:42.426Z,99.15
2018-03-19T11:28:43.003Z,99.43
2018-03-19T11:29:43.581Z,99.91
2018-03-19T11:30:44.158Z,99.99
2018-03-19T11:31:44.776Z,98.76
2018-03-19T11:32:45.353Z,99.62
2018-03-19T11:33:45.933Z,99.24
2018-03-19T11:34:46.508Z,99.33
2018-03-19T11:35:47.084Z,99.99
2018-03-19T11:36:47.711Z,99.99
2018-03-19T11:37:48.286Z,99.99
2018-03-19T11:38:48.861Z,99.99
2018-03-19T11:39:49.487Z,99.99
2018-03-19T11:40:50.063Z,99.91
2018-03-19T11:41:50.720Z,99.99
2018-03-19T11:42:51.214Z,99.99
2018-03-19T11:43:51.792Z,99.99
2018-03-19T11:44:52.419Z,99.99
2018-03-19T11:45:52.992Z,99.99
2018-03-19T11:46:53.619Z,98.66
2018-03-19T11:47:54.194Z,97.71
2018-03-19T11:48:54.773Z,99.15
2018-03-19T11:49:55.349Z,98.38
2018-03-19T11:50:55.923Z,96.51
2018-03-19T11:51:56.550Z,98.66
2018-03-19T11:52:57.127Z,99.96
2018-03-19T11:53:57.708Z,99.81
2018-03-19T11:54:58.322Z,97.37
2018-03-19T11:55:58.902Z,96.80
2018-03-19T11:56:59.477Z,98.52
2018-03-19T11:58:00.107Z,98.00
2018-03-19T11:59:00.686Z,99.99
2018-03-19T12:00:01.266Z,99.99
2018-03-19T12:01:01.842Z,99.99
2018-03-19T12:02:02.422Z,99.99
2018-03-19T12:03:03.038Z,99.99
2018-03-19T12:04:03.766Z,99.99
2018-03-19T12:05:04.346Z,98.57
2018-03-19T12:06:05.073Z,99.99
2018-03-19T12:07:05.652Z,99.99
2018-03-19T12:08:06.230Z,99.33
2018-03-19T12:09:06.807Z,99.24
2018-03-19T12:10:07.391Z,97.52
2018-03-19T12:11:08.006Z,95.98
2018-03-19T12:12:08.581Z,95.98
2018-03-19T12:13:09.157Z,95.89
2018-03-19T12:14:09.784Z,96.66
2018-03-19T12:15:10.361Z,95.17
2018-03-19T12:16:10.940Z,96.89
2018-03-19T12:17:11.517Z,95.94
2018-03-19T12:18:12.093Z,97.95
2018-03-19T12:19:12.670Z,94.31
2018-03-19T12:20:13.247Z,94.21
2018-03-19T12:21:13.823Z,98.61
2018-03-19T12:22:14.450Z,98.33
2018-03-19T12:23:15.077Z,95.75
2018-03-19T12:24:15.653Z,95.36
2018-03-19T12:25:16.232Z,96.51
2018-03-19T12:26:16.811Z,94.89
2018-03-19T12:27:17.387Z,96.32
2018-03-19T12:28:17.966Z,95.75
2018-03-19T12:29:18.543Z,97.37
2018-03-19T12:31:29.739Z,94.79
2018-03-19T12:32:30.367Z,95.46
2018-03-19T12:33:30.985Z,97.13
2018-03-19T12:34:31.519Z,96.66
2018-03-19T12:35:32.097Z,95.89
2018-03-19T12:36:32.725Z,96.66
2018-03-19T12:37:33.300Z,95.70
2018-03-19T12:38:33.877Z,92.73
2018-03-19T12:39:34.455Z,94.55
2018-03-19T12:40:35.031Z,93.98
2018-03-19T12:41:35.607Z,95.51
2018-03-19T12:42:36.183Z,95.03
2018-03-19T12:43:36.762Z,90.91
2018-03-19T12:44:37.343Z,93.88
2018-03-19T12:45:37.921Z,93.40
2018-03-19T12:46:38.499Z,93.30
2018-03-19T12:47:39.124Z,94.45
2018-03-19T12:48:39.703Z,91.87
2018-03-19T12:49:40.332Z,93.40
2018-03-19T12:50:40.907Z,94.17
2018-03-19T12:51:41.535Z,94.07
2018-03-19T12:52:42.115Z,92.83
2018-03-19T12:53:42.690Z,91.87
2018-03-19T12:54:43.267Z,95.12
2018-03-19T12:55:43.848Z,92.63
2018-03-19T12:56:44.418Z,92.73
2018-03-19T12:57:44.996Z,91.49
2018-03-19T12:58:45.574Z,91.58
2018-03-19T12:59:46.153Z,91.49
2018-03-19T13:00:46.731Z,92.44
2018-03-19T13:01:47.308Z,90.82